createdAt,value
2023-04-16T00:02:40.401Z,5.63
2023-04-16T00:05:43.276Z,5.07
2023-04-16T00:08:46.422Z,5.43
2023-04-16T00:11:49.149Z,3.83
2023-04-16T00:14:51.793Z,5.85
2023-04-16T00:17:54.430Z,4.85
2023-04-16T00:20:57.168Z,5.30
2023-04-16T00:24:00.195Z,5.60
2023-04-16T00:27:02.940Z,4.37
2023-04-16T00:30:07.530Z,4.35
2023-04-16T00:33:10.301Z,5.35
2023-04-16T00:36:13.022Z,5.43
2023-04-16T00:39:15.867Z,6.80
2023-04-16T00:42:18.639Z,4.07
2023-04-16T00:45:21.481Z,4.95
2023-04-16T00:48:27.983Z,4.55
2023-04-16T00:51:33.746Z,4.75
2023-04-16T00:54:36.530Z,5.07
2023-04-16T00:57:39.907Z,4.43
2023-04-16T01:00:43.134Z,4.15
2023-04-16T01:03:48.409Z,5.72
2023-04-16T01:06:51.411Z,5.28
2023-04-16T01:09:54.246Z,4.83
2023-04-16T01:12:56.968Z,4.90
2023-04-16T01:16:01.054Z,4.13
2023-04-16T01:19:03.923Z,5.00
2023-04-16T01:22:07.275Z,5.93
2023-04-16T01:25:14.530Z,4.93
2023-04-16T01:28:17.293Z,4.97
2023-04-16T01:31:20.160Z,4.82
2023-04-16T01:34:37.151Z,4.80
2023-04-16T01:37:39.912Z,4.72
2023-04-16T01:40:42.773Z,4.10
2023-04-16T01:43:46.105Z,6.13
2023-04-16T01:46:48.855Z,4.85
2023-04-16T01:49:51.751Z,4.50
2023-04-16T01:52:54.454Z,4.35
2023-04-16T01:55:57.361Z,3.60
2023-04-16T01:59:00.059Z,4.63
2023-04-16T02:02:13.559Z,5.18
2023-04-16T02:05:16.458Z,4.15
2023-04-16T02:08:19.972Z,4.32
2023-04-16T02:11:23.051Z,4.83
2023-04-16T02:14:26.624Z,4.00
2023-04-16T02:17:29.383Z,4.57
2023-04-16T02:21:00.998Z,3.63
2023-04-16T02:24:04.869Z,4.38
2023-04-16T02:27:08.667Z,4.13
2023-04-16T02:30:11.888Z,4.07
2023-04-16T02:33:15.418Z,3.78
2023-04-16T02:36:28.484Z,4.07
2023-04-16T02:39:31.979Z,3.83
2023-04-16T02:42:35.449Z,5.20
2023-04-16T02:45:38.318Z,4.00
2023-04-16T02:48:41.268Z,3.90
2023-04-16T02:51:43.971Z,4.03
2023-04-16T02:54:46.616Z,3.72
2023-04-16T02:57:49.305Z,4.13
2023-04-16T03:00:53.653Z,3.73
2023-04-16T03:03:56.758Z,4.07
2023-04-16T03:06:59.565Z,3.88
2023-04-16T03:10:02.423Z,3.92
2023-04-16T03:13:05.418Z,4.43
2023-04-16T03:16:13.294Z,4.60
2023-04-16T03:19:15.953Z,5.18
2023-04-16T03:22:19.703Z,4.15
2023-04-16T03:25:22.408Z,4.00
2023-04-16T03:28:25.965Z,3.43
2023-04-16T03:31:29.160Z,3.97
2023-04-16T03:34:31.915Z,3.35
2023-04-16T03:37:35.530Z,3.97
2023-04-16T03:40:39.449Z,3.78
2023-04-16T03:43:42.196Z,3.47
2023-04-16T03:46:46.255Z,4.30
2023-04-16T03:49:49.217Z,3.65
2023-04-16T03:52:52.269Z,3.95
2023-04-16T03:55:55.005Z,4.03
2023-04-16T03:58:58.602Z,3.67
2023-04-16T04:02:02.182Z,3.50
2023-04-16T04:05:05.364Z,3.72
2023-04-16T04:08:09.410Z,3.97
2023-04-16T04:11:12.625Z,3.22
2023-04-16T04:14:17.624Z,3.90
2023-04-16T04:17:20.455Z,4.37
2023-04-16T04:20:42.212Z,3.80
2023-04-16T04:23:45.025Z,3.80
2023-04-16T04:26:47.699Z,3.90
2023-04-16T04:29:50.468Z,3.60
2023-04-16T04:32:53.218Z,4.00
2023-04-16T04:35:57.486Z,3.78
2023-04-16T04:39:00.722Z,2.92
2023-04-16T04:42:04.429Z,3.75
2023-04-16T04:45:07.860Z,3.53
2023-04-16T04:48:12.831Z,3.87
2023-04-16T04:51:15.747Z,3.15
2023-04-16T04:54:19.879Z,4.05
2023-04-16T04:57:23.929Z,3.05
2023-04-16T05:00:30.019Z,4.10
2023-04-16T05:03:32.985Z,3.17
2023-04-16T05:06:35.788Z,3.20
2023-04-16T05:09:38.528Z,3.10
2023-04-16T05:12:41.519Z,2.75
2023-04-16T05:15:45.759Z,3.90
2023-04-16T05:18:48.427Z,3.33
2023-04-16T05:21:51.234Z,3.20
2023-04-16T05:24:53.996Z,2.72
2023-04-16T05:27:56.633Z,3.83
2023-04-16T05:30:59.410Z,4.23
2023-04-16T05:34:02.114Z,3.23
2023-04-16T05:37:04.783Z,3.30
2023-04-16T05:40:08.298Z,3.42
2023-04-16T05:43:11.147Z,3.83
2023-04-16T05:46:13.920Z,3.63
2023-04-16T05:49:18.941Z,3.00
2023-04-16T05:52:21.827Z,3.20
2023-04-16T05:55:24.436Z,3.15
2023-04-16T05:58:27.094Z,3.25
2023-04-16T06:01:30.567Z,3.37
2023-04-16T06:04:33.868Z,4.00
2023-04-16T06:07:36.494Z,3.70
2023-04-16T06:10:39.567Z,4.35
2023-04-16T06:13:42.618Z,2.22
2023-04-16T06:16:45.641Z,2.87
2023-04-16T06:19:48.324Z,3.53
2023-04-16T06:22:51.123Z,3.03
2023-04-16T06:25:53.903Z,3.75
2023-04-16T06:28:56.719Z,3.38
2023-04-16T06:32:00.073Z,3.27
2023-04-16T06:35:02.781Z,3.27
2023-04-16T06:38:05.701Z,2.20
2023-04-16T06:41:08.555Z,3.17
2023-04-16T06:44:11.341Z,2.85
2023-04-16T06:47:14.035Z,3.63
2023-04-16T06:50:16.861Z,3.53
2023-04-16T06:53:19.824Z,3.10
2023-04-16T06:56:22.438Z,2.95
2023-04-16T06:59:25.151Z,3.20
2023-04-16T07:02:28.024Z,3.40
2023-04-16T07:05:30.824Z,2.77
2023-04-16T07:08:33.782Z,3.13
2023-04-16T07:11:36.725Z,3.20
2023-04-16T07:14:39.707Z,2.95
2023-04-16T07:17:42.405Z,4.03
2023-04-16T07:20:45.221Z,2.87
2023-04-16T07:23:48.661Z,2.95
2023-04-16T07:26:51.356Z,2.47
2023-04-16T07:29:54.940Z,2.85
2023-04-16T07:32:58.241Z,3.20
2023-04-16T07:36:00.968Z,2.97
2023-04-16T07:39:09.177Z,3.58
2023-04-16T07:42:12.086Z,2.90
2023-04-16T07:45:15.004Z,3.05
2023-04-16T07:48:17.922Z,3.03
2023-04-16T07:51:20.790Z,3.10
2023-04-16T07:54:23.504Z,3.05
2023-04-16T07:57:26.156Z,2.92
2023-04-16T08:00:29.766Z,2.75
2023-04-16T08:03:32.944Z,3.37
2023-04-16T08:06:35.686Z,3.40
2023-04-16T08:09:48.687Z,3.63
2023-04-16T08:12:51.406Z,2.95
2023-04-16T08:15:54.300Z,3.38
2023-04-16T08:18:57.086Z,2.83
2023-04-16T08:22:00.056Z,2.47
2023-04-16T08:25:04.009Z,2.90
2023-04-16T08:28:06.748Z,2.70
2023-04-16T08:31:09.487Z,2.53
2023-04-16T08:34:12.670Z,3.57
2023-04-16T08:37:15.604Z,2.40
2023-04-16T08:40:18.449Z,2.50
2023-04-16T08:43:24.224Z,2.53
2023-04-16T08:46:28.140Z,3.22
2023-04-16T08:49:36.165Z,3.50
2023-04-16T08:52:43.582Z,2.20
2023-04-16T08:55:48.839Z,2.83
2023-04-16T08:58:54.908Z,2.83
2023-04-16T09:01:59.750Z,3.17
2023-04-16T09:05:06.309Z,4.03
2023-04-16T09:08:09.487Z,2.70
2023-04-16T09:11:17.902Z,3.22
2023-04-16T09:14:22.214Z,3.00
2023-04-16T09:17:25.020Z,3.28
2023-04-16T09:20:27.732Z,3.00
2023-04-16T09:23:31.229Z,3.07
2023-04-16T09:26:34.571Z,2.83
2023-04-16T09:29:39.449Z,2.92
2023-04-16T09:32:43.581Z,2.95
2023-04-16T09:35:53.462Z,2.83
2023-04-16T09:38:57.771Z,3.10
2023-04-16T09:42:01.051Z,3.08
2023-04-16T09:45:05.931Z,3.15
2023-04-16T09:48:09.171Z,2.78
2023-04-16T09:51:11.881Z,2.57
2023-04-16T09:54:15.741Z,2.73
2023-04-16T09:57:25.045Z,1.90
2023-04-16T10:00:30.425Z,3.22
2023-04-16T10:03:35.073Z,1.95
2023-04-16T10:06:37.929Z,2.70
2023-04-16T10:09:41.764Z,2.40
2023-04-16T10:12:44.514Z,3.50
2023-04-16T10:15:48.153Z,2.72
2023-04-16T10:18:50.852Z,3.22
2023-04-16T10:21:55.886Z,2.50
2023-04-16T10:24:58.912Z,3.07
2023-04-16T10:28:02.444Z,2.58
2023-04-16T10:31:08.301Z,2.28
2023-04-16T10:34:12.045Z,2.97
2023-04-16T10:37:16.123Z,3.10
2023-04-16T10:40:26.886Z,2.53
2023-04-16T10:43:31.371Z,2.22
2023-04-16T10:46:39.103Z,2.45
2023-04-16T10:49:43.696Z,2.42
2023-04-16T10:52:46.534Z,3.53
2023-04-16T10:56:05.219Z,2.57
2023-04-16T10:59:12.208Z,2.22
2023-04-16T11:02:19.621Z,3.22
2023-04-16T11:05:23.928Z,2.95
2023-04-16T11:08:27.199Z,2.70
2023-04-16T11:11:38.755Z,2.20
2023-04-16T11:14:42.240Z,2.13
2023-04-16T11:17:50.748Z,2.40
2023-04-16T11:20:53.502Z,2.50
2023-04-16T11:23:58.109Z,2.73
2023-04-16T11:27:01.810Z,2.70
2023-04-16T11:30:09.819Z,3.28
2023-04-16T11:33:12.786Z,2.50
2023-04-16T11:36:15.584Z,3.00
2023-04-16T11:39:24.430Z,3.53
2023-04-16T11:42:28.674Z,2.50
2023-04-16T11:45:31.611Z,2.30
2023-04-16T11:48:53.848Z,2.38
2023-04-16T11:51:59.473Z,3.05
2023-04-16T11:55:03.480Z,2.63
2023-04-16T11:58:13.124Z,2.73
2023-04-16T12:01:21.540Z,2.63
2023-04-16T12:04:26.399Z,2.17
2023-04-16T12:07:29.160Z,3.38
2023-04-16T12:10:37.833Z,2.60
2023-04-16T12:13:40.523Z,3.10
2023-04-16T12:16:43.251Z,2.97
2023-04-16T12:19:50.332Z,2.50
2023-04-16T12:22:55.525Z,3.08
2023-04-16T12:26:02.831Z,2.47
2023-04-16T12:29:22.676Z,2.80
2023-04-16T12:32:25.452Z,2.42
2023-04-16T12:35:32.872Z,2.42
2023-04-16T12:38:36.368Z,3.10
2023-04-16T12:41:41.099Z,2.90
2023-04-16T12:44:43.805Z,2.30
2023-04-16T12:47:47.271Z,2.60
2023-04-16T12:50:50.030Z,2.38
2023-04-16T12:53:53.245Z,2.25
2023-04-16T12:56:55.917Z,2.40
2023-04-16T13:00:02.083Z,2.33
2023-04-16T13:03:06.145Z,2.03
2023-04-16T13:06:09.248Z,2.35
2023-04-16T13:09:12.608Z,2.38
2023-04-16T13:12:15.799Z,2.67
2023-04-16T13:15:18.572Z,2.67
2023-04-16T13:18:21.335Z,2.33
2023-04-16T13:21:24.287Z,2.13
2023-04-16T13:24:27.369Z,2.65
2023-04-16T13:27:36.360Z,2.97
2023-04-16T13:30:39.445Z,2.40
2023-04-16T13:33:42.536Z,2.75
2023-04-16T13:36:45.466Z,2.78
2023-04-16T13:39:48.358Z,2.80
2023-04-16T13:42:51.965Z,3.27
2023-04-16T13:45:57.113Z,2.67
2023-04-16T13:49:00.216Z,2.90
2023-04-16T13:52:03.881Z,1.98
2023-04-16T13:55:07.225Z,2.22
2023-04-16T13:58:11.267Z,2.53
2023-04-16T14:01:14.350Z,2.77
2023-04-16T14:04:17.568Z,2.88
2023-04-16T14:07:22.974Z,1.83
2023-04-16T14:10:26.271Z,2.15
2023-04-16T14:13:32.700Z,2.80
2023-04-16T14:16:36.981Z,2.30
2023-04-16T14:19:39.955Z,2.72
2023-04-16T14:22:44.419Z,2.55
2023-04-16T14:25:47.205Z,2.40
2023-04-16T14:28:51.447Z,2.73
2023-04-16T14:31:54.287Z,3.37
2023-04-16T14:34:57.613Z,2.50
2023-04-16T14:38:01.455Z,2.53
2023-04-16T14:41:04.643Z,2.72
2023-04-16T14:44:08.715Z,3.10
2023-04-16T14:47:11.632Z,3.00
2023-04-16T14:50:16.182Z,2.47
2023-04-16T14:53:19.595Z,2.53
2023-04-16T14:56:22.320Z,2.60
2023-04-16T14:59:25.150Z,2.43
2023-04-16T15:02:28.478Z,3.20
2023-04-16T15:05:32.093Z,2.50
2023-04-16T15:08:35.495Z,2.42
2023-04-16T15:11:39.852Z,2.67
2023-04-16T15:14:43.333Z,2.57
2023-04-16T15:17:47.062Z,3.00
2023-04-16T15:20:51.685Z,2.78
2023-04-16T15:23:55.174Z,2.53
2023-04-16T15:26:57.985Z,2.42
2023-04-16T15:30:02.228Z,3.17
2023-04-16T15:33:06.414Z,2.40
2023-04-16T15:36:09.544Z,2.53
2023-04-16T15:39:13.323Z,2.53
2023-04-16T15:42:17.515Z,2.38
2023-04-16T15:45:21.551Z,2.07
2023-04-16T15:48:25.127Z,2.83
2023-04-16T15:51:32.509Z,2.10
2023-04-16T15:54:35.593Z,2.67
2023-04-16T15:57:38.782Z,2.00
2023-04-16T16:00:42.047Z,2.60
2023-04-16T16:03:46.152Z,2.40
2023-04-16T16:06:50.897Z,2.30
2023-04-16T16:09:54.177Z,2.90
2023-04-16T16:12:58.060Z,2.45
2023-04-16T16:16:01.403Z,2.40
2023-04-16T16:19:04.658Z,2.73
2023-04-16T16:22:09.944Z,1.95
2023-04-16T16:25:13.241Z,2.33
2023-04-16T16:28:16.587Z,2.22
2023-04-16T16:31:20.323Z,2.37
2023-04-16T16:34:24.857Z,2.50
2023-04-16T16:37:29.739Z,2.78
2023-04-16T16:40:32.640Z,2.65
2023-04-16T16:43:37.227Z,2.22
2023-04-16T16:46:41.177Z,2.23
2023-04-16T16:49:46.373Z,1.97
2023-04-16T16:52:50.806Z,2.35
2023-04-16T16:55:54.005Z,2.20
2023-04-16T16:58:59.042Z,2.78
2023-04-16T17:02:02.017Z,1.97
2023-04-16T17:05:06.253Z,2.40
2023-04-16T17:08:09.720Z,2.20
2023-04-16T17:11:13.011Z,2.47
2023-04-16T17:14:17.379Z,1.63
2023-04-16T17:17:21.215Z,2.80
2023-04-16T17:20:24.919Z,1.80
2023-04-16T17:23:29.777Z,2.33
2023-04-16T17:26:33.446Z,1.85
2023-04-16T17:29:36.776Z,2.38
2023-04-16T17:32:40.521Z,2.37
2023-04-16T17:35:43.903Z,2.27
2023-04-16T17:38:48.467Z,2.28
2023-04-16T17:41:55.263Z,2.40
2023-04-16T17:44:58.368Z,3.13
2023-04-16T17:48:02.074Z,2.00
2023-04-16T17:51:17.075Z,2.80
2023-04-16T17:54:20.372Z,2.30
2023-04-16T17:57:23.412Z,1.77
2023-04-16T18:00:26.600Z,2.30
2023-04-16T18:03:30.611Z,2.43
2023-04-16T18:06:34.497Z,1.77
2023-04-16T18:09:38.375Z,2.92
2023-04-16T18:12:41.285Z,1.58
2023-04-16T18:15:45.115Z,2.35
2023-04-16T18:18:49.185Z,2.87
2023-04-16T18:21:52.443Z,2.60
2023-04-16T18:24:56.088Z,2.25
2023-04-16T18:27:59.595Z,2.30
2023-04-16T18:31:06.116Z,2.70
2023-04-16T18:34:09.754Z,2.27
2023-04-16T18:37:13.192Z,2.70
2023-04-16T18:40:16.955Z,2.67
2023-04-16T18:43:20.371Z,2.53
2023-04-16T18:46:24.158Z,2.80
2023-04-16T18:49:27.452Z,2.70
2023-04-16T18:52:31.183Z,2.77
2023-04-16T18:55:34.841Z,2.40
2023-04-16T18:58:39.056Z,2.15
2023-04-16T19:01:42.875Z,2.35
2023-04-16T19:04:47.029Z,2.83
2023-04-16T19:07:50.900Z,2.30
2023-04-16T19:11:01.235Z,2.15
2023-04-16T19:14:06.497Z,2.30
2023-04-16T19:17:10.050Z,2.13
2023-04-16T19:20:13.889Z,2.17
2023-04-16T19:23:17.107Z,2.60
2023-04-16T19:26:20.455Z,2.75
2023-04-16T19:29:23.924Z,2.05
2023-04-16T19:32:27.090Z,2.72
2023-04-16T19:35:30.954Z,2.20
2023-04-16T19:38:35.127Z,2.07
2023-04-16T19:41:39.369Z,2.70
2023-04-16T19:44:43.288Z,1.95
2023-04-16T19:47:50.481Z,2.08
2023-04-16T19:50:54.071Z,2.67
2023-04-16T19:53:59.381Z,2.73
2023-04-16T19:57:02.606Z,2.42
2023-04-16T20:00:11.131Z,2.33
2023-04-16T20:03:14.354Z,3.10
2023-04-16T20:06:18.147Z,2.33
2023-04-16T20:09:21.491Z,2.03
2023-04-16T20:12:24.500Z,2.78
2023-04-16T20:15:27.972Z,1.83
2023-04-16T20:18:34.428Z,3.15
2023-04-16T20:21:38.349Z,2.40
2023-04-16T20:24:47.825Z,2.30
2023-04-16T20:27:51.349Z,2.30
2023-04-16T20:30:54.565Z,2.15
2023-04-16T20:33:58.067Z,2.28
2023-04-16T20:37:01.201Z,1.70
2023-04-16T20:40:08.086Z,2.27
2023-04-16T20:43:14.500Z,2.45
2023-04-16T20:46:24.523Z,2.28
2023-04-16T20:49:48.923Z,2.13
2023-04-16T20:52:52.074Z,2.37
2023-04-16T20:55:55.161Z,2.60
2023-04-16T20:58:59.529Z,2.50
2023-04-16T21:02:03.017Z,2.58
2023-04-16T21:05:09.102Z,2.38
2023-04-16T21:08:11.988Z,1.87
2023-04-16T21:11:14.684Z,2.77
2023-04-16T21:14:17.419Z,2.40
2023-04-16T21:17:20.349Z,2.10
2023-04-16T21:20:23.078Z,2.28
2023-04-16T21:23:25.799Z,2.93
2023-04-16T21:26:28.509Z,2.17
2023-04-16T21:29:31.387Z,2.03
2023-04-16T21:32:34.559Z,2.40
2023-04-16T21:35:37.296Z,2.17
2023-04-16T21:38:40.065Z,1.80
2023-04-16T21:41:42.798Z,2.20
2023-04-16T21:44:45.470Z,2.58
2023-04-16T21:47:48.133Z,1.80
2023-04-16T21:50:58.346Z,2.33
2023-04-16T21:54:01.120Z,2.07
2023-04-16T21:57:03.879Z,2.00
2023-04-16T22:00:14.500Z,2.65
2023-04-16T22:03:18.616Z,2.28
2023-04-16T22:06:21.460Z,2.22
2023-04-16T22:09:24.982Z,2.63
2023-04-16T22:12:28.592Z,2.47
2023-04-16T22:15:31.407Z,2.30
2023-04-16T22:18:34.549Z,2.60
2023-04-16T22:21:37.679Z,2.20
2023-04-16T22:24:40.591Z,2.57
2023-04-16T22:27:43.259Z,2.83
2023-04-16T22:30:46.056Z,1.85
2023-04-16T22:33:48.721Z,2.20
2023-04-16T22:36:51.526Z,2.00
2023-04-16T22:39:54.178Z,2.63
2023-04-16T22:42:56.923Z,2.77
2023-04-16T22:46:06.748Z,1.92
2023-04-16T22:49:09.848Z,2.47
2023-04-16T22:52:13.024Z,1.98
2023-04-16T22:55:15.686Z,2.33
2023-04-16T22:58:18.334Z,2.33
2023-04-16T23:01:21.231Z,2.38
2023-04-16T23:04:24.453Z,2.03
2023-04-16T23:07:27.238Z,1.85
2023-04-16T23:10:30.059Z,2.40
2023-04-16T23:13:33.042Z,2.37
2023-04-16T23:16:35.844Z,2.40
2023-04-16T23:19:38.552Z,2.17
2023-04-16T23:22:41.606Z,1.92
2023-04-16T23:25:44.343Z,1.90
2023-04-16T23:28:47.034Z,2.47
2023-04-16T23:31:49.790Z,1.85
2023-04-16T23:34:52.542Z,2.13
2023-04-16T23:37:55.443Z,1.98
2023-04-16T23:41:02.613Z,2.13
2023-04-16T23:44:06.370Z,1.83
2023-04-16T23:47:08.992Z,2.00
2023-04-16T23:50:11.967Z,1.67
2023-04-16T23:53:14.845Z,1.65
2023-04-16T23:56:17.616Z,2.20
2023-04-16T23:59:20.364Z,2.00
